createdAt,value
2023-04-07T00:04:22.249Z,5.60
2023-04-07T00:09:25.703Z,4.60
2023-04-07T00:14:28.734Z,4.87
2023-04-07T00:19:34.419Z,4.80
2023-04-07T00:24:37.883Z,4.40
2023-04-07T00:29:41.200Z,4.60
2023-04-07T00:34:46.074Z,4.87
2023-04-07T00:39:55.819Z,4.67
2023-04-07T00:44:58.915Z,5.07
2023-04-07T00:50:05.080Z,4.90
2023-04-07T00:55:09.146Z,5.20
2023-04-07T01:00:16.376Z,5.17
2023-04-07T01:05:26.642Z,5.00
2023-04-07T01:10:39.118Z,4.87
2023-04-07T01:15:56.378Z,4.73
2023-04-07T01:21:08.855Z,4.57
2023-04-07T01:26:25.606Z,4.23
2023-04-07T01:31:30.614Z,4.33
2023-04-07T01:36:34.883Z,3.87
2023-04-07T01:41:39.789Z,4.30
2023-04-07T01:46:44.467Z,4.23
2023-04-07T01:51:50.710Z,4.30
2023-04-07T01:56:53.764Z,4.50
2023-04-07T02:01:59.268Z,4.03
2023-04-07T02:07:07.589Z,3.83
2023-04-07T02:12:18.239Z,3.23
2023-04-07T02:17:36.227Z,4.10
2023-04-07T02:22:40.396Z,4.43
2023-04-07T02:27:43.772Z,3.90
2023-04-07T02:32:48.992Z,3.87
2023-04-07T02:37:52.323Z,3.77
2023-04-07T02:42:55.510Z,3.97
2023-04-07T02:48:00.559Z,4.13
2023-04-07T02:53:03.670Z,4.47
2023-04-07T02:58:06.887Z,4.30
2023-04-07T03:03:17.371Z,4.00
2023-04-07T03:08:32.545Z,4.27
2023-04-07T03:13:35.930Z,5.10
2023-04-07T03:18:41.635Z,4.37
2023-04-07T03:23:45.776Z,4.50
2023-04-07T03:28:48.929Z,4.50
2023-04-07T03:33:55.541Z,4.90
2023-04-07T03:38:59.984Z,5.37
2023-04-07T03:44:03.893Z,3.90
2023-04-07T03:49:12.738Z,4.10
2023-04-07T03:54:16.205Z,4.30
2023-04-07T03:59:21.845Z,4.93
2023-04-07T04:04:35.058Z,4.73
2023-04-07T04:09:38.295Z,4.87
2023-04-07T04:14:41.782Z,4.93
2023-04-07T04:19:48.676Z,4.63
2023-04-07T04:25:03.616Z,5.23
2023-04-07T04:30:09.502Z,5.27
2023-04-07T04:35:23.152Z,5.33
2023-04-07T04:40:39.529Z,6.03
2023-04-07T04:45:43.860Z,6.10
2023-04-07T04:50:51.505Z,5.73
2023-04-07T04:55:54.803Z,6.23
2023-04-07T05:01:02.256Z,7.20
2023-04-07T05:06:18.450Z,6.50
2023-04-07T05:11:24.418Z,6.63
2023-04-07T05:16:29.794Z,5.97
2023-04-07T05:21:34.517Z,6.23
2023-04-07T05:26:40.049Z,4.20
2023-04-07T05:31:43.276Z,4.23
2023-04-07T05:36:51.940Z,4.33
2023-04-07T05:41:56.645Z,4.53
2023-04-07T05:47:02.432Z,4.40
2023-04-07T05:52:08.056Z,4.60
2023-04-07T05:57:17.139Z,4.23
2023-04-07T06:02:22.387Z,3.50
2023-04-07T06:07:27.801Z,3.50
2023-04-07T06:12:31.216Z,3.77
2023-04-07T06:17:34.966Z,3.60
2023-04-07T06:22:40.183Z,3.20
2023-04-07T06:27:44.032Z,3.37
2023-04-07T06:32:47.187Z,3.00
2023-04-07T06:37:51.641Z,3.00
2023-04-07T06:42:55.456Z,3.67
2023-04-07T06:48:04.842Z,3.30
2023-04-07T06:53:09.335Z,2.47
2023-04-07T06:58:12.496Z,2.60
2023-04-07T07:03:15.733Z,2.30
2023-04-07T07:08:20.198Z,2.60
2023-04-07T07:13:26.213Z,2.60
2023-04-07T07:18:31.878Z,2.60
2023-04-07T07:23:36.393Z,2.13
2023-04-07T07:28:39.393Z,2.30
2023-04-07T07:33:44.319Z,1.63
2023-04-07T07:38:53.668Z,1.90
2023-04-07T07:43:57.468Z,2.17
2023-04-07T07:49:00.787Z,1.97
2023-04-07T07:54:05.386Z,2.00
2023-04-07T07:59:08.612Z,2.10
2023-04-07T08:04:11.923Z,2.07
2023-04-07T08:09:16.567Z,2.53
2023-04-07T08:14:20.442Z,2.13
2023-04-07T08:19:24.155Z,2.03
2023-04-07T08:24:29.981Z,1.80
2023-04-07T08:29:33.249Z,1.53
2023-04-07T08:34:37.127Z,1.50
2023-04-07T08:39:41.813Z,1.37
2023-04-07T08:44:46.371Z,1.80
2023-04-07T08:49:54.186Z,1.50
2023-04-07T08:55:01.738Z,1.50
2023-04-07T09:00:06.445Z,1.77
2023-04-07T09:05:10.828Z,1.70
2023-04-07T09:10:15.701Z,2.33
2023-04-07T09:15:18.708Z,2.40
2023-04-07T09:20:21.974Z,2.43
2023-04-07T09:25:28.116Z,3.00
2023-04-07T09:30:32.668Z,2.20
2023-04-07T09:35:53.606Z,2.40
2023-04-07T09:41:07.778Z,2.63
2023-04-07T09:46:13.627Z,2.13
2023-04-07T09:51:18.605Z,2.00
2023-04-07T09:56:24.079Z,2.33
2023-04-07T10:01:27.250Z,2.37
2023-04-07T10:06:30.935Z,2.20
2023-04-07T10:11:35.396Z,2.33
2023-04-07T10:16:39.289Z,2.00
2023-04-07T10:21:43.971Z,1.93
2023-04-07T10:26:53.187Z,2.00
2023-04-07T10:32:01.033Z,1.90
2023-04-07T10:37:13.619Z,3.03
2023-04-07T10:42:47.375Z,2.13
2023-04-07T10:48:16.126Z,1.80
2023-04-07T10:53:19.715Z,2.20
2023-04-07T10:58:24.425Z,2.20
2023-04-07T11:03:30.559Z,2.53
2023-04-07T11:08:35.057Z,2.93
2023-04-07T11:13:45.088Z,3.47
2023-04-07T11:18:52.872Z,1.80
2023-04-07T11:23:56.177Z,2.77
2023-04-07T11:28:59.395Z,2.83
2023-04-07T11:34:05.703Z,1.90
2023-04-07T11:39:28.179Z,2.17
2023-04-07T11:44:33.589Z,2.30
2023-04-07T11:49:47.520Z,2.13
2023-04-07T11:54:51.314Z,3.63
2023-04-07T12:00:07.144Z,2.40
2023-04-07T12:05:11.706Z,2.40
2023-04-07T12:10:21.666Z,2.33
2023-04-07T12:15:24.754Z,2.97
2023-04-07T12:20:29.737Z,3.03
2023-04-07T12:25:32.986Z,2.40
2023-04-07T12:30:36.163Z,3.00
2023-04-07T12:35:40.722Z,2.20
2023-04-07T12:40:44.017Z,2.43
2023-04-07T12:45:47.492Z,2.47
2023-04-07T12:50:52.256Z,2.90
2023-04-07T12:55:56.326Z,2.73
2023-04-07T13:01:00.816Z,2.67
2023-04-07T13:06:06.096Z,2.70
2023-04-07T13:11:09.135Z,2.40
2023-04-07T13:16:12.367Z,2.90
2023-04-07T13:21:40.541Z,3.10
2023-04-07T13:26:40.141Z,2.73
2023-04-07T13:31:43.382Z,3.40
2023-04-07T13:36:47.748Z,3.20
2023-04-07T13:41:53.113Z,2.83
2023-04-07T13:46:57.612Z,3.30
2023-04-07T13:52:02.754Z,2.90
2023-04-07T13:57:06.049Z,3.10
2023-04-07T14:02:12.229Z,3.17
2023-04-07T14:07:18.617Z,2.50
2023-04-07T14:12:22.312Z,3.13
2023-04-07T14:17:25.957Z,2.33
2023-04-07T14:22:30.926Z,2.27
2023-04-07T14:27:34.100Z,3.03
2023-04-07T14:32:37.335Z,2.90
2023-04-07T14:37:41.890Z,2.67
2023-04-07T14:42:45.089Z,2.53
2023-04-07T14:47:50.266Z,2.13
2023-04-07T14:52:55.776Z,2.67
2023-04-07T14:57:58.929Z,2.30
2023-04-07T15:03:02.266Z,2.47
2023-04-07T15:08:06.845Z,2.83
2023-04-07T15:13:09.804Z,2.80
2023-04-07T15:18:12.933Z,3.07
2023-04-07T15:23:17.490Z,2.77
2023-04-07T15:28:20.630Z,3.30
2023-04-07T15:33:23.754Z,2.80
2023-04-07T15:38:29.206Z,3.03
2023-04-07T15:43:32.208Z,3.40
2023-04-07T15:48:35.385Z,3.47
2023-04-07T15:53:41.898Z,3.53
2023-04-07T15:58:45.447Z,3.73
2023-04-07T16:03:51.012Z,3.33
2023-04-07T16:08:56.270Z,3.47
2023-04-07T16:13:59.356Z,3.33
2023-04-07T16:19:02.436Z,3.40
2023-04-07T16:24:07.241Z,2.97
2023-04-07T16:29:10.393Z,2.97
2023-04-07T16:34:14.489Z,2.93
2023-04-07T16:39:19.245Z,3.27
2023-04-07T16:44:23.192Z,4.83
2023-04-07T16:49:26.845Z,3.40
2023-04-07T16:54:31.367Z,3.73
2023-04-07T16:59:34.748Z,3.30
2023-04-07T17:04:41.129Z,3.13
2023-04-07T17:09:46.350Z,3.10
2023-04-07T17:14:52.429Z,3.67
2023-04-07T17:19:57.266Z,2.90
2023-04-07T17:25:02.042Z,3.40
2023-04-07T17:30:06.924Z,2.90
2023-04-07T17:35:10.780Z,3.00
2023-04-07T17:40:15.509Z,4.23
2023-04-07T17:45:19.027Z,3.87
2023-04-07T17:50:22.552Z,4.83
2023-04-07T17:55:27.998Z,4.57
2023-04-07T18:00:32.013Z,4.70
2023-04-07T18:05:37.702Z,4.73
2023-04-07T18:10:42.464Z,4.67
2023-04-07T18:15:45.788Z,4.80
2023-04-07T18:20:48.890Z,5.70
2023-04-07T18:25:53.659Z,4.30
2023-04-07T18:31:04.249Z,5.50
2023-04-07T18:36:09.451Z,5.37
2023-04-07T18:41:14.359Z,5.23
2023-04-07T18:46:17.596Z,5.10
2023-04-07T18:51:20.790Z,5.10
2023-04-07T18:56:27.366Z,5.53
2023-04-07T19:01:30.748Z,5.87
2023-04-07T19:06:33.812Z,6.03
2023-04-07T19:11:38.225Z,6.57
2023-04-07T19:16:41.592Z,5.93
2023-04-07T19:21:44.630Z,5.97
2023-04-07T19:26:49.920Z,5.50
2023-04-07T19:31:54.788Z,6.07
2023-04-07T19:36:58.594Z,6.80
2023-04-07T19:42:03.835Z,5.40
2023-04-07T19:47:07.173Z,6.67
2023-04-07T19:52:10.597Z,7.50
2023-04-07T19:57:16.501Z,7.03
2023-04-07T20:02:19.720Z,7.07
2023-04-07T20:07:23.021Z,6.83
2023-04-07T20:12:27.661Z,8.37
2023-04-07T20:17:32.566Z,7.73
2023-04-07T20:22:36.523Z,6.60
2023-04-07T20:27:41.094Z,8.77
2023-04-07T20:32:46.172Z,8.47
2023-04-07T20:37:49.953Z,8.60
2023-04-07T20:42:54.669Z,9.90
2023-04-07T20:47:57.921Z,7.60
2023-04-07T20:53:01.088Z,9.27
2023-04-07T20:58:05.484Z,8.60
2023-04-07T21:03:09.063Z,8.40
2023-04-07T21:08:14.003Z,8.73
2023-04-07T21:13:22.586Z,9.40
2023-04-07T21:18:26.539Z,9.97
2023-04-07T21:23:31.350Z,9.13
2023-04-07T21:28:35.892Z,9.30
2023-04-07T21:33:39.637Z,9.60
2023-04-07T21:38:42.920Z,9.33
2023-04-07T21:43:50.378Z,9.77
2023-04-07T21:48:53.584Z,10.20
2023-04-07T21:53:56.707Z,10.07
2023-04-07T21:59:01.493Z,9.73
2023-04-07T22:04:04.646Z,10.23
2023-04-07T22:09:08.597Z,10.00
2023-04-07T22:14:13.196Z,10.73
2023-04-07T22:19:16.201Z,10.40
2023-04-07T22:24:19.237Z,9.20
2023-04-07T22:29:24.069Z,10.27
2023-04-07T22:34:27.290Z,10.03
2023-04-07T22:39:30.558Z,11.03
2023-04-07T22:44:35.102Z,10.40
2023-04-07T22:49:38.088Z,11.57
2023-04-07T22:54:41.293Z,9.77
2023-04-07T22:59:51.754Z,10.57
2023-04-07T23:04:55.630Z,10.43
2023-04-07T23:09:58.754Z,11.10
2023-04-07T23:15:03.316Z,11.27
2023-04-07T23:20:07.456Z,11.80
2023-04-07T23:25:11.057Z,12.13
2023-04-07T23:30:16.693Z,12.37
2023-04-07T23:35:20.039Z,13.10
2023-04-07T23:40:23.266Z,12.80
2023-04-07T23:45:27.683Z,14.57
2023-04-07T23:50:31.029Z,13.07
2023-04-07T23:55:34.007Z,15.07
